createdAt,value
2023-05-22T00:00:00.726Z,17.15
2023-05-22T00:01:05.030Z,17.14
2023-05-22T00:02:08.419Z,17.12
2023-05-22T00:03:11.013Z,17.10
2023-05-22T00:04:13.596Z,17.08
2023-05-22T00:05:18.589Z,17.07
2023-05-22T00:06:22.295Z,17.07
2023-05-22T00:07:24.614Z,17.04
2023-05-22T00:08:29.574Z,17.04
2023-05-22T00:09:32.283Z,17.01
2023-05-22T00:10:34.616Z,17.00
2023-05-22T00:11:36.988Z,16.98
2023-05-22T00:12:39.628Z,16.96
2023-05-22T00:13:41.946Z,16.95
2023-05-22T00:14:44.261Z,16.93
2023-05-22T00:15:46.697Z,16.91
2023-05-22T00:16:49.097Z,16.89
2023-05-22T00:17:54.105Z,16.87
2023-05-22T00:18:57.521Z,16.86
2023-05-22T00:20:04.683Z,16.84
2023-05-22T00:21:07.064Z,16.81
2023-05-22T00:22:10.148Z,16.80
2023-05-22T00:23:14.619Z,16.77
2023-05-22T00:24:17.916Z,16.76
2023-05-22T00:25:20.553Z,16.74
2023-05-22T00:26:24.189Z,16.72
2023-05-22T00:27:26.568Z,16.70
2023-05-22T00:28:29.227Z,16.69
2023-05-22T00:29:31.522Z,16.66
2023-05-22T00:30:33.972Z,16.65
2023-05-22T00:31:36.308Z,16.62
2023-05-22T00:32:39.358Z,16.60
2023-05-22T00:33:41.699Z,16.58
2023-05-22T00:34:44.140Z,16.57
2023-05-22T00:35:46.574Z,16.54
2023-05-22T00:36:49.341Z,16.54
2023-05-22T00:37:51.642Z,16.50
2023-05-22T00:38:53.972Z,16.47
2023-05-22T00:39:56.249Z,16.46
2023-05-22T00:41:02.375Z,16.43
2023-05-22T00:42:05.074Z,16.43
2023-05-22T00:43:09.000Z,16.42
2023-05-22T00:44:12.267Z,16.40
2023-05-22T00:45:14.955Z,16.40
2023-05-22T00:46:21.782Z,16.38
2023-05-22T00:47:24.242Z,16.37
2023-05-22T00:48:26.695Z,16.36
2023-05-22T00:49:30.242Z,16.34
2023-05-22T00:50:32.505Z,16.33
2023-05-22T00:51:36.248Z,16.33
2023-05-22T00:52:42.710Z,16.31
2023-05-22T00:53:46.624Z,16.29
2023-05-22T00:54:51.008Z,16.28
2023-05-22T00:55:54.283Z,16.28
2023-05-22T00:56:57.615Z,16.25
2023-05-22T00:58:01.213Z,16.23
2023-05-22T00:59:04.521Z,16.23
2023-05-22T01:00:10.853Z,16.21
2023-05-22T01:01:13.322Z,16.20
2023-05-22T01:02:16.676Z,16.19
2023-05-22T01:03:26.282Z,16.17
2023-05-22T01:04:33.377Z,16.14
2023-05-22T01:05:37.021Z,16.15
2023-05-22T01:06:41.554Z,16.16
2023-05-22T01:07:45.919Z,16.14
2023-05-22T01:08:48.202Z,16.14
2023-05-22T01:09:50.715Z,16.13
2023-05-22T01:11:08.431Z,16.12
2023-05-22T01:12:51.099Z,16.11
2023-05-22T01:14:15.069Z,16.10
2023-05-22T01:15:20.764Z,16.07
2023-05-22T01:17:11.249Z,16.08
2023-05-22T01:18:55.276Z,16.07
2023-05-22T01:20:29.142Z,16.06
2023-05-22T01:21:46.385Z,16.04
2023-05-22T01:22:51.262Z,16.04
2023-05-22T01:24:42.090Z,16.03
2023-05-22T01:26:10.846Z,16.02
2023-05-22T01:27:35.326Z,16.03
2023-05-22T01:29:07.944Z,16.01
2023-05-22T01:30:34.677Z,16.01
2023-05-22T01:31:41.804Z,15.99
2023-05-22T01:32:46.831Z,15.98
2023-05-22T01:33:53.452Z,15.96
2023-05-22T01:35:01.384Z,15.96
2023-05-22T01:36:07.661Z,15.95
2023-05-22T01:37:10.937Z,15.93
2023-05-22T01:38:13.775Z,15.92
2023-05-22T01:39:16.441Z,15.92
2023-05-22T01:40:20.482Z,15.91
2023-05-22T01:41:23.410Z,15.90
2023-05-22T01:42:26.076Z,15.87
2023-05-22T01:43:29.592Z,15.87
2023-05-22T01:44:31.859Z,15.86
2023-05-22T01:45:34.237Z,15.84
2023-05-22T01:46:37.757Z,15.84
2023-05-22T01:47:40.569Z,15.85
2023-05-22T01:48:42.853Z,15.82
2023-05-22T01:49:47.428Z,15.80
2023-05-22T01:50:52.670Z,15.79
2023-05-22T01:52:02.814Z,15.77
2023-05-22T01:53:15.966Z,15.76
2023-05-22T01:54:45.721Z,15.74
2023-05-22T01:56:01.899Z,15.71
2023-05-22T01:57:19.468Z,15.70
2023-05-22T01:59:01.793Z,15.65
2023-05-22T02:00:11.895Z,15.63
2023-05-22T02:01:27.417Z,15.61
2023-05-22T02:02:32.118Z,15.59
2023-05-22T02:03:36.923Z,15.56
2023-05-22T02:04:42.617Z,15.54
2023-05-22T02:05:48.141Z,15.53
2023-05-22T02:06:53.156Z,15.49
2023-05-22T02:08:01.053Z,15.47
2023-05-22T02:09:03.422Z,15.44
2023-05-22T02:10:09.618Z,15.43
2023-05-22T02:11:13.891Z,15.39
2023-05-22T02:12:17.443Z,15.39
2023-05-22T02:13:20.225Z,15.38
2023-05-22T02:14:22.949Z,15.36
2023-05-22T02:15:25.278Z,15.36
2023-05-22T02:16:30.469Z,15.34
2023-05-22T02:17:40.674Z,15.32
2023-05-22T02:18:44.628Z,15.30
2023-05-22T02:19:47.007Z,15.29
2023-05-22T02:20:49.385Z,15.30
2023-05-22T02:21:51.670Z,15.29
2023-05-22T02:22:53.976Z,15.27
2023-05-22T02:23:56.332Z,15.25
2023-05-22T02:24:59.310Z,15.25
2023-05-22T02:26:01.750Z,15.25
2023-05-22T02:27:04.381Z,15.25
2023-05-22T02:28:06.672Z,15.24
2023-05-22T02:29:09.037Z,15.25
2023-05-22T02:30:12.864Z,15.25
2023-05-22T02:31:18.474Z,15.25
2023-05-22T02:32:21.066Z,15.24
2023-05-22T02:33:24.069Z,15.23
2023-05-22T02:34:27.451Z,15.23
2023-05-22T02:35:29.939Z,15.23
2023-05-22T02:36:32.433Z,15.22
2023-05-22T02:37:35.715Z,15.22
2023-05-22T02:38:38.042Z,15.22
2023-05-22T02:39:40.357Z,15.20
2023-05-22T02:40:42.829Z,15.19
2023-05-22T02:41:45.899Z,15.19
2023-05-22T02:42:48.245Z,15.19
2023-05-22T02:43:51.117Z,15.18
2023-05-22T02:44:53.483Z,15.17
2023-05-22T02:45:56.118Z,15.15
2023-05-22T02:46:58.459Z,15.14
2023-05-22T02:48:03.792Z,15.14
2023-05-22T02:49:07.499Z,15.14
2023-05-22T02:50:09.979Z,15.13
2023-05-22T02:51:12.319Z,15.12
2023-05-22T02:52:14.738Z,15.11
2023-05-22T02:53:17.460Z,15.10
2023-05-22T02:54:19.714Z,15.10
2023-05-22T02:55:22.018Z,15.10
2023-05-22T02:56:25.067Z,15.08
2023-05-22T02:57:27.395Z,15.08
2023-05-22T02:58:29.942Z,15.07
2023-05-22T02:59:32.988Z,15.07
2023-05-22T03:00:35.262Z,15.05
2023-05-22T03:01:39.001Z,15.04
2023-05-22T03:02:41.620Z,15.04
2023-05-22T03:03:45.361Z,15.04
2023-05-22T03:04:47.755Z,15.03
2023-05-22T03:05:50.288Z,15.01
2023-05-22T03:06:52.673Z,15.01
2023-05-22T03:07:55.059Z,15.00
2023-05-22T03:08:57.399Z,15.01
2023-05-22T03:09:59.674Z,15.01
2023-05-22T03:11:01.975Z,14.99
2023-05-22T03:12:05.456Z,14.98
2023-05-22T03:13:08.437Z,14.98
2023-05-22T03:14:10.807Z,14.99
2023-05-22T03:15:13.080Z,14.99
2023-05-22T03:16:17.366Z,14.99
2023-05-22T03:17:21.986Z,14.99
2023-05-22T03:18:26.657Z,14.99
2023-05-22T03:19:31.335Z,14.98
2023-05-22T03:20:34.216Z,14.99
2023-05-22T03:21:37.568Z,14.99
2023-05-22T03:22:40.845Z,14.97
2023-05-22T03:23:44.908Z,14.98
2023-05-22T03:24:47.214Z,14.97
2023-05-22T03:25:49.746Z,14.97
2023-05-22T03:26:52.122Z,14.97
2023-05-22T03:28:01.854Z,14.96
2023-05-22T03:29:07.824Z,14.97
2023-05-22T03:30:12.540Z,14.99
2023-05-22T03:31:18.075Z,14.98
2023-05-22T03:32:38.324Z,15.01
2023-05-22T03:33:41.646Z,14.99
2023-05-22T03:34:44.071Z,15.00
2023-05-22T03:35:47.242Z,15.02
2023-05-22T03:36:50.099Z,15.03
2023-05-22T03:37:52.999Z,15.05
2023-05-22T03:38:55.405Z,15.05
2023-05-22T03:39:58.203Z,15.06
2023-05-22T03:41:04.296Z,15.07
2023-05-22T03:42:06.853Z,15.09
2023-05-22T03:43:09.274Z,15.10
2023-05-22T03:44:11.850Z,15.11
2023-05-22T03:45:14.130Z,15.13
2023-05-22T03:46:16.561Z,15.14
2023-05-22T03:47:19.819Z,15.17
2023-05-22T03:48:22.161Z,15.19
2023-05-22T03:49:24.506Z,15.21
2023-05-22T03:50:26.864Z,15.23
2023-05-22T03:51:29.149Z,15.24
2023-05-22T03:52:31.445Z,15.26
2023-05-22T03:53:34.050Z,15.28
2023-05-22T03:54:36.386Z,15.30
2023-05-22T03:55:39.515Z,15.32
2023-05-22T03:56:41.808Z,15.34
2023-05-22T03:57:44.146Z,15.37
2023-05-22T03:58:46.432Z,15.39
2023-05-22T03:59:48.740Z,15.41
2023-05-22T04:00:55.860Z,15.44
2023-05-22T04:01:58.317Z,15.46
2023-05-22T04:03:01.176Z,15.48
2023-05-22T04:04:05.786Z,15.52
2023-05-22T04:05:09.215Z,15.54
2023-05-22T04:06:13.976Z,15.56
2023-05-22T04:07:18.670Z,15.60
2023-05-22T04:08:20.998Z,15.62
2023-05-22T04:09:23.291Z,15.64
2023-05-22T04:10:25.829Z,15.65
2023-05-22T04:11:30.702Z,15.69
2023-05-22T04:12:33.124Z,15.71
2023-05-22T04:13:35.663Z,15.74
2023-05-22T04:14:37.996Z,15.77
2023-05-22T04:15:41.838Z,15.79
2023-05-22T04:16:44.150Z,15.82
2023-05-22T04:17:47.674Z,15.85
2023-05-22T04:18:50.106Z,15.91
2023-05-22T04:19:52.515Z,15.93
2023-05-22T04:20:55.258Z,15.96
2023-05-22T04:21:58.538Z,16.01
2023-05-22T04:23:01.318Z,16.04
2023-05-22T04:24:07.557Z,16.09
2023-05-22T04:25:10.541Z,16.11
2023-05-22T04:26:13.432Z,16.14
2023-05-22T04:27:15.949Z,16.18
2023-05-22T04:28:18.296Z,16.24
2023-05-22T04:29:22.651Z,16.29
2023-05-22T04:30:25.914Z,16.33
2023-05-22T04:31:28.911Z,16.39
2023-05-22T04:32:31.289Z,16.43
2023-05-22T04:33:34.699Z,16.47
2023-05-22T04:34:41.788Z,16.53
2023-05-22T04:35:44.987Z,16.58
2023-05-22T04:36:48.241Z,16.63
2023-05-22T04:37:50.617Z,16.68
2023-05-22T04:38:54.343Z,16.74
2023-05-22T04:39:58.513Z,16.82
2023-05-22T04:41:00.938Z,16.86
2023-05-22T04:42:06.094Z,16.91
2023-05-22T04:43:08.782Z,16.97
2023-05-22T04:44:11.103Z,17.02
2023-05-22T04:45:14.234Z,17.07
2023-05-22T04:46:16.661Z,17.12
2023-05-22T04:47:20.295Z,17.16
2023-05-22T04:48:23.281Z,17.23
2023-05-22T04:49:26.518Z,17.27
2023-05-22T04:50:32.720Z,17.33
2023-05-22T04:51:35.320Z,17.40
2023-05-22T04:52:37.665Z,17.45
2023-05-22T04:53:40.355Z,17.51
2023-05-22T04:54:44.633Z,17.54
2023-05-22T04:55:47.846Z,17.62
2023-05-22T04:56:51.837Z,17.68
2023-05-22T04:57:54.104Z,17.72
2023-05-22T04:58:56.540Z,17.78
2023-05-22T04:59:58.946Z,17.82
2023-05-22T05:01:01.622Z,17.87
2023-05-22T05:02:07.424Z,17.92
2023-05-22T05:03:11.997Z,17.97
2023-05-22T05:04:17.827Z,18.02
2023-05-22T05:05:20.853Z,18.06
2023-05-22T05:06:23.718Z,18.11
2023-05-22T05:07:26.001Z,18.15
2023-05-22T05:08:28.337Z,18.21
2023-05-22T05:09:30.893Z,18.26
2023-05-22T05:10:33.825Z,18.31
2023-05-22T05:11:36.521Z,18.34
2023-05-22T05:12:39.292Z,18.38
2023-05-22T05:13:41.923Z,18.42
2023-05-22T05:14:44.298Z,18.46
2023-05-22T05:15:50.674Z,18.51
2023-05-22T05:16:53.263Z,18.55
2023-05-22T05:17:56.213Z,18.61
2023-05-22T05:18:58.629Z,18.65
2023-05-22T05:20:02.506Z,18.68
2023-05-22T05:21:05.276Z,18.72
2023-05-22T05:22:07.574Z,18.75
2023-05-22T05:23:10.537Z,18.78
2023-05-22T05:24:13.357Z,18.81
2023-05-22T05:25:15.826Z,18.85
2023-05-22T05:26:18.935Z,18.87
2023-05-22T05:27:21.442Z,18.91
2023-05-22T05:28:24.050Z,18.94
2023-05-22T05:29:26.464Z,18.96
2023-05-22T05:30:42.522Z,18.99
2023-05-22T05:31:50.929Z,19.01
2023-05-22T05:33:15.674Z,19.06
2023-05-22T05:34:38.540Z,19.08
2023-05-22T05:35:52.909Z,19.11
2023-05-22T05:37:03.187Z,19.14
2023-05-22T05:38:06.638Z,19.17
2023-05-22T05:39:09.984Z,19.19
2023-05-22T05:40:13.228Z,19.22
2023-05-22T05:41:20.576Z,19.25
2023-05-22T05:42:27.458Z,19.30
2023-05-22T05:43:32.999Z,19.33
2023-05-22T05:44:39.896Z,19.39
2023-05-22T05:45:44.019Z,19.42
2023-05-22T05:46:46.575Z,19.48
2023-05-22T05:47:51.358Z,19.52
2023-05-22T05:48:55.084Z,19.56
2023-05-22T05:49:59.460Z,19.60
2023-05-22T05:51:05.337Z,19.66
2023-05-22T05:52:13.053Z,19.69
2023-05-22T05:53:16.535Z,19.73
2023-05-22T05:54:26.661Z,19.76
2023-05-22T05:55:33.284Z,19.81
2023-05-22T05:56:37.049Z,19.85
2023-05-22T05:57:41.279Z,19.93
2023-05-22T05:58:47.480Z,19.98
2023-05-22T06:00:06.447Z,20.05
2023-05-22T06:01:18.733Z,20.13
2023-05-22T06:02:21.778Z,20.18
2023-05-22T06:03:27.357Z,20.25
2023-05-22T06:04:50.931Z,20.36
2023-05-22T06:05:54.440Z,20.41
2023-05-22T06:07:18.290Z,20.50
2023-05-22T06:08:22.312Z,20.59
2023-05-22T06:09:24.859Z,20.66
2023-05-22T06:10:44.034Z,20.76
2023-05-22T06:11:48.737Z,20.85
2023-05-22T06:12:51.202Z,20.95
2023-05-22T06:13:53.565Z,21.04
2023-05-22T06:14:55.873Z,21.12
2023-05-22T06:16:00.746Z,21.23
2023-05-22T06:17:04.615Z,21.34
2023-05-22T06:18:07.230Z,21.44
2023-05-22T06:19:10.994Z,21.53
2023-05-22T06:20:15.576Z,21.64
2023-05-22T06:21:21.200Z,21.76
2023-05-22T06:22:26.036Z,21.84
2023-05-22T06:23:28.746Z,21.95
2023-05-22T06:24:32.752Z,22.03
2023-05-22T06:25:40.241Z,22.14
2023-05-22T06:26:42.853Z,22.23
2023-05-22T06:27:45.144Z,22.30
2023-05-22T06:28:47.542Z,22.38
2023-05-22T06:29:51.324Z,22.45
2023-05-22T06:30:53.673Z,22.54
2023-05-22T06:31:59.138Z,22.61
2023-05-22T06:33:01.874Z,22.67
2023-05-22T06:34:04.472Z,22.75
2023-05-22T06:35:07.352Z,22.82
2023-05-22T06:36:11.782Z,22.90
2023-05-22T06:37:14.261Z,22.96
2023-05-22T06:38:18.945Z,23.04
2023-05-22T06:39:21.693Z,23.11
2023-05-22T06:40:33.454Z,23.19
2023-05-22T06:41:45.844Z,23.28
2023-05-22T06:42:49.235Z,23.35
2023-05-22T06:44:10.616Z,23.45
2023-05-22T06:45:15.229Z,23.54
2023-05-22T06:46:27.595Z,23.63
2023-05-22T06:47:33.847Z,23.72
2023-05-22T06:48:36.540Z,23.80
2023-05-22T06:49:46.574Z,23.91
2023-05-22T06:50:50.095Z,24.00
2023-05-22T06:51:52.702Z,24.09
2023-05-22T06:52:55.324Z,24.22
2023-05-22T06:53:57.658Z,24.28
2023-05-22T06:55:07.398Z,24.38
2023-05-22T06:56:20.845Z,24.49
2023-05-22T06:57:28.638Z,24.62
2023-05-22T06:58:31.543Z,24.72
2023-05-22T06:59:34.598Z,24.83
2023-05-22T07:00:40.078Z,24.95
2023-05-22T07:01:48.676Z,25.05
2023-05-22T07:02:56.589Z,25.16
2023-05-22T07:04:06.940Z,25.28
2023-05-22T07:05:20.651Z,25.39
2023-05-22T07:06:28.438Z,25.50
2023-05-22T07:07:31.551Z,25.60
2023-05-22T07:08:34.394Z,25.71
2023-05-22T07:09:36.857Z,25.81
2023-05-22T07:10:41.056Z,25.93
2023-05-22T07:11:44.125Z,26.06
2023-05-22T07:12:48.091Z,26.18
2023-05-22T07:13:51.979Z,26.31
2023-05-22T07:14:54.914Z,26.44
2023-05-22T07:15:59.336Z,26.59
2023-05-22T07:17:02.351Z,26.73
2023-05-22T07:18:11.096Z,26.86
2023-05-22T07:19:15.976Z,26.99
2023-05-22T07:20:18.570Z,27.10
2023-05-22T07:21:32.922Z,27.23
2023-05-22T07:22:35.357Z,27.34
2023-05-22T07:23:37.654Z,27.41
2023-05-22T07:24:40.114Z,27.52
2023-05-22T07:25:43.305Z,27.59
2023-05-22T07:26:47.211Z,27.66
2023-05-22T07:27:51.068Z,27.75
2023-05-22T07:28:54.688Z,27.80
2023-05-22T07:29:57.092Z,27.86
2023-05-22T07:30:59.968Z,27.90
2023-05-22T07:32:02.640Z,27.94
2023-05-22T07:33:06.463Z,27.98
2023-05-22T07:34:09.493Z,28.02
2023-05-22T07:35:11.912Z,28.06
2023-05-22T07:36:15.334Z,28.08
2023-05-22T07:37:18.648Z,28.09
2023-05-22T07:38:23.242Z,28.13
2023-05-22T07:39:32.870Z,28.14
2023-05-22T07:40:35.403Z,28.18
2023-05-22T07:41:37.744Z,28.21
2023-05-22T07:42:41.997Z,28.24
2023-05-22T07:43:46.883Z,28.29
2023-05-22T07:44:52.198Z,28.34
2023-05-22T07:45:56.255Z,28.38
2023-05-22T07:47:01.617Z,28.44
2023-05-22T07:48:05.860Z,28.52
2023-05-22T07:49:11.571Z,28.55
2023-05-22T07:50:16.575Z,28.62
2023-05-22T07:51:21.160Z,28.70
2023-05-22T07:52:26.222Z,28.77
2023-05-22T07:53:28.748Z,28.84
2023-05-22T07:54:33.996Z,28.93
2023-05-22T07:55:36.406Z,29.03
2023-05-22T07:56:41.856Z,29.11
2023-05-22T07:57:44.679Z,29.21
2023-05-22T07:58:55.746Z,29.32
2023-05-22T07:59:59.577Z,29.41
2023-05-22T08:01:02.187Z,29.48
2023-05-22T08:02:05.419Z,29.57
2023-05-22T08:03:07.974Z,29.65
2023-05-22T08:04:10.720Z,29.74
2023-05-22T08:05:13.393Z,29.81
2023-05-22T08:06:18.016Z,29.92
2023-05-22T08:07:20.382Z,29.99
2023-05-22T08:08:22.774Z,30.05
2023-05-22T08:09:25.146Z,30.10
2023-05-22T08:10:30.013Z,30.17
2023-05-22T08:11:42.390Z,30.23
2023-05-22T08:12:45.402Z,30.30
2023-05-22T08:13:48.070Z,30.34
2023-05-22T08:14:50.417Z,30.38
2023-05-22T08:16:00.128Z,30.42
2023-05-22T08:17:03.705Z,30.49
2023-05-22T08:18:06.196Z,30.51
2023-05-22T08:19:09.291Z,30.57
2023-05-22T08:20:13.362Z,30.62
2023-05-22T08:21:15.787Z,30.67
2023-05-22T08:22:18.452Z,30.72
2023-05-22T08:23:21.085Z,30.76
2023-05-22T08:24:28.653Z,30.82
2023-05-22T08:25:31.019Z,30.85
2023-05-22T08:26:34.149Z,30.91
2023-05-22T08:27:36.867Z,30.95
2023-05-22T08:28:44.261Z,31.00
2023-05-22T08:29:46.613Z,31.04
2023-05-22T08:30:48.942Z,31.06
2023-05-22T08:31:52.511Z,31.11
2023-05-22T08:32:54.922Z,31.13
2023-05-22T08:34:03.022Z,31.15
2023-05-22T08:35:06.020Z,31.17
2023-05-22T08:36:08.401Z,31.19
2023-05-22T08:37:10.788Z,31.20
2023-05-22T08:38:13.208Z,31.21
2023-05-22T08:39:16.157Z,31.23
2023-05-22T08:40:20.599Z,31.23
2023-05-22T08:41:23.044Z,31.25
2023-05-22T08:42:25.437Z,31.23
2023-05-22T08:43:28.893Z,31.24
2023-05-22T08:44:31.423Z,31.25
2023-05-22T08:45:34.816Z,31.29
2023-05-22T08:46:41.997Z,31.30
2023-05-22T08:47:44.900Z,31.33
2023-05-22T08:48:48.063Z,31.37
2023-05-22T08:49:52.323Z,31.41
2023-05-22T08:50:58.474Z,31.48
2023-05-22T08:52:08.691Z,31.53
2023-05-22T08:53:13.641Z,31.57
2023-05-22T08:54:18.398Z,31.58
2023-05-22T08:55:20.776Z,31.59
2023-05-22T08:56:23.663Z,31.62
2023-05-22T08:57:26.980Z,31.66
2023-05-22T08:58:29.693Z,31.66
2023-05-22T08:59:32.429Z,31.67
2023-05-22T09:00:34.930Z,31.68
2023-05-22T09:01:37.829Z,31.67
2023-05-22T09:02:40.835Z,31.67
2023-05-22T09:03:43.624Z,31.66
2023-05-22T09:04:46.025Z,31.65
2023-05-22T09:05:49.610Z,31.65
2023-05-22T09:06:52.179Z,31.65
2023-05-22T09:07:58.361Z,31.65
2023-05-22T09:09:05.362Z,31.56
2023-05-22T09:10:08.281Z,31.56
2023-05-22T09:11:11.637Z,31.56
2023-05-22T09:12:14.161Z,31.51
2023-05-22T09:13:27.350Z,31.50
2023-05-22T09:14:39.364Z,31.48
2023-05-22T09:15:42.157Z,31.46
2023-05-22T09:16:49.170Z,31.46
2023-05-22T09:17:51.636Z,31.44
2023-05-22T09:18:54.060Z,31.46
2023-05-22T09:20:00.254Z,31.44
2023-05-22T09:21:06.836Z,31.42
2023-05-22T09:22:14.582Z,31.36
2023-05-22T09:23:22.353Z,31.32
2023-05-22T09:24:24.903Z,31.28
2023-05-22T09:25:27.670Z,31.25
2023-05-22T09:26:30.463Z,31.23
2023-05-22T09:27:33.706Z,31.20
2023-05-22T09:28:37.232Z,31.18
2023-05-22T09:29:52.598Z,31.14
2023-05-22T09:30:55.879Z,31.12
2023-05-22T09:32:00.150Z,31.09
2023-05-22T09:33:04.990Z,31.08
2023-05-22T09:34:09.351Z,31.05
2023-05-22T09:35:11.832Z,31.03
2023-05-22T09:36:15.331Z,31.01
2023-05-22T09:37:19.710Z,31.00
2023-05-22T09:38:23.708Z,31.00
2023-05-22T09:39:39.916Z,30.93
2023-05-22T09:40:42.374Z,30.90
2023-05-22T09:41:44.787Z,30.83
2023-05-22T09:42:47.105Z,30.79
2023-05-22T09:43:52.529Z,30.75
2023-05-22T09:44:54.815Z,30.67
2023-05-22T09:46:00.599Z,30.64
2023-05-22T09:47:03.844Z,30.58
2023-05-22T09:48:07.202Z,30.50
2023-05-22T09:49:09.689Z,30.41
2023-05-22T09:50:13.082Z,30.38
2023-05-22T09:51:16.795Z,30.33
2023-05-22T09:52:20.977Z,30.28
2023-05-22T09:53:29.243Z,30.23
2023-05-22T09:54:34.505Z,30.19
2023-05-22T09:55:37.209Z,30.15
2023-05-22T09:56:41.587Z,30.09
2023-05-22T09:57:45.374Z,30.02
2023-05-22T09:58:48.157Z,29.94
2023-05-22T09:59:55.360Z,29.89
2023-05-22T10:00:59.477Z,29.83
2023-05-22T10:02:04.862Z,29.77
2023-05-22T10:03:16.275Z,29.71
2023-05-22T10:04:19.190Z,29.65
2023-05-22T10:05:23.088Z,29.61
2023-05-22T10:06:27.241Z,29.50
2023-05-22T10:07:37.663Z,29.39
2023-05-22T10:08:46.509Z,29.34
2023-05-22T10:09:55.953Z,29.26
2023-05-22T10:10:58.893Z,29.18
2023-05-22T10:12:06.412Z,29.12
2023-05-22T10:13:09.336Z,29.06
2023-05-22T10:14:13.631Z,28.99
2023-05-22T10:15:18.225Z,28.93
2023-05-22T10:16:22.082Z,28.88
2023-05-22T10:17:25.014Z,28.82
2023-05-22T10:18:28.869Z,28.74
2023-05-22T10:19:33.227Z,28.68
2023-05-22T10:20:36.194Z,28.60
2023-05-22T10:21:41.580Z,28.56
2023-05-22T10:22:44.389Z,28.51
2023-05-22T10:23:48.021Z,28.45
2023-05-22T10:24:51.510Z,28.42
2023-05-22T10:25:55.214Z,28.36
2023-05-22T10:26:58.130Z,28.28
2023-05-22T10:28:00.809Z,28.23
2023-05-22T10:29:10.977Z,28.17
2023-05-22T10:30:28.118Z,28.12
2023-05-22T10:32:13.114Z,28.09
2023-05-22T10:33:28.260Z,28.07
2023-05-22T10:34:37.495Z,28.00
2023-05-22T10:36:02.011Z,27.98
2023-05-22T10:37:20.295Z,27.93
2023-05-22T10:38:55.890Z,27.93
2023-05-22T10:40:05.479Z,27.89
2023-05-22T10:41:08.414Z,27.90
2023-05-22T10:42:13.798Z,27.88
2023-05-22T10:43:16.331Z,27.87
2023-05-22T10:44:19.059Z,27.88
2023-05-22T10:45:21.478Z,27.89
2023-05-22T10:46:23.948Z,27.91
2023-05-22T10:47:26.568Z,27.89
2023-05-22T10:48:29.813Z,27.87
2023-05-22T10:49:32.154Z,27.84
2023-05-22T10:50:36.051Z,27.85
2023-05-22T10:51:38.883Z,27.86
2023-05-22T10:52:41.678Z,27.87
2023-05-22T10:53:45.558Z,27.86
2023-05-22T10:54:53.834Z,27.88
2023-05-22T10:55:57.306Z,27.87
2023-05-22T10:57:17.506Z,27.89
2023-05-22T10:58:30.890Z,27.91
2023-05-22T10:59:36.335Z,27.88
2023-05-22T11:00:38.853Z,27.90
2023-05-22T11:01:41.545Z,27.93
2023-05-22T11:03:16.997Z,27.96
2023-05-22T11:04:26.156Z,27.98
2023-05-22T11:05:30.703Z,27.98
2023-05-22T11:06:45.932Z,28.01
2023-05-22T11:07:48.871Z,28.01
2023-05-22T11:08:51.217Z,28.04
2023-05-22T11:10:00.640Z,28.05
2023-05-22T11:11:11.534Z,28.05
2023-05-22T11:12:13.832Z,28.06
2023-05-22T11:13:18.173Z,28.08
2023-05-22T11:14:20.947Z,28.07
2023-05-22T11:15:31.510Z,28.11
2023-05-22T11:16:34.525Z,28.14
2023-05-22T11:17:39.787Z,28.14
2023-05-22T11:18:45.128Z,28.16
2023-05-22T11:20:24.544Z,28.14
2023-05-22T11:21:29.823Z,28.13
2023-05-22T11:22:38.158Z,28.16
2023-05-22T11:23:41.178Z,28.15
2023-05-22T11:24:43.541Z,28.17
2023-05-22T11:25:46.140Z,28.17
2023-05-22T11:27:10.582Z,28.16
2023-05-22T11:28:13.292Z,28.18
2023-05-22T11:29:18.361Z,28.20
2023-05-22T11:30:24.959Z,28.18
2023-05-22T11:31:27.774Z,28.16
2023-05-22T11:32:30.241Z,28.13
2023-05-22T11:33:32.773Z,28.13
2023-05-22T11:34:36.216Z,28.14
2023-05-22T11:35:38.788Z,28.11
2023-05-22T11:36:41.161Z,28.09
2023-05-22T11:37:43.726Z,28.07
2023-05-22T11:38:46.116Z,28.05
2023-05-22T11:39:59.075Z,28.04
2023-05-22T11:41:01.368Z,28.03
2023-05-22T11:42:05.291Z,27.94
2023-05-22T11:43:07.590Z,27.96
2023-05-22T11:44:11.176Z,27.90
2023-05-22T11:45:14.284Z,27.87
2023-05-22T11:46:16.813Z,27.87
2023-05-22T11:47:19.201Z,27.85
2023-05-22T11:48:23.732Z,27.82
2023-05-22T11:49:27.821Z,27.79
2023-05-22T11:50:41.576Z,27.81
2023-05-22T11:51:45.320Z,27.74
2023-05-22T11:52:48.176Z,27.74
2023-05-22T11:53:50.703Z,27.72
2023-05-22T11:54:53.401Z,27.70
2023-05-22T11:55:55.840Z,27.68
2023-05-22T11:56:58.231Z,27.65
2023-05-22T11:58:02.549Z,27.65
2023-05-22T11:59:05.300Z,27.64
2023-05-22T12:00:09.045Z,27.61
2023-05-22T12:01:18.335Z,27.58
2023-05-22T12:02:20.724Z,27.57
2023-05-22T12:04:26.106Z,27.52
2023-05-22T12:05:28.692Z,27.47
2023-05-22T12:06:33.596Z,27.48
2023-05-22T12:07:36.144Z,27.48
2023-05-22T12:08:38.584Z,27.47
2023-05-22T12:09:42.918Z,27.46
2023-05-22T12:10:50.334Z,27.47
2023-05-22T12:11:55.736Z,27.47
2023-05-22T12:12:58.121Z,27.43
2023-05-22T12:14:02.134Z,27.39
2023-05-22T12:15:07.763Z,27.39
2023-05-22T12:16:22.158Z,27.40
2023-05-22T12:17:24.782Z,27.41
2023-05-22T12:18:35.204Z,27.42
2023-05-22T12:19:40.752Z,27.43
2023-05-22T12:20:44.064Z,27.41
2023-05-22T12:21:46.386Z,27.42
2023-05-22T12:22:49.400Z,27.39
2023-05-22T12:23:52.114Z,27.36
2023-05-22T12:24:55.191Z,27.31
2023-05-22T12:25:58.462Z,27.31
2023-05-22T12:27:00.877Z,27.29
2023-05-22T12:28:03.545Z,27.30
2023-05-22T12:29:05.869Z,27.29
2023-05-22T12:30:13.498Z,27.26
2023-05-22T12:31:22.920Z,27.28
2023-05-22T12:32:25.881Z,27.31
2023-05-22T12:33:31.885Z,27.30
2023-05-22T12:34:42.049Z,27.29
2023-05-22T12:35:44.381Z,27.27
2023-05-22T12:36:47.326Z,27.30
2023-05-22T12:37:52.465Z,27.35
2023-05-22T12:38:57.721Z,27.34
2023-05-22T12:40:01.817Z,27.36
2023-05-22T12:41:04.221Z,27.35
2023-05-22T12:42:08.864Z,27.35
2023-05-22T12:43:11.312Z,27.36
2023-05-22T12:44:15.852Z,27.38
2023-05-22T12:45:18.881Z,27.39
2023-05-22T12:46:21.276Z,27.39
2023-05-22T12:47:25.428Z,27.39
2023-05-22T12:48:28.063Z,27.39
2023-05-22T12:49:30.496Z,27.40
2023-05-22T12:50:32.862Z,27.41
2023-05-22T12:51:35.487Z,27.42
2023-05-22T12:52:37.824Z,27.44
2023-05-22T12:53:40.236Z,27.44
2023-05-22T12:54:42.631Z,27.43
2023-05-22T12:55:45.301Z,27.44
2023-05-22T12:56:47.585Z,27.45
2023-05-22T12:57:49.935Z,27.44
2023-05-22T12:58:52.688Z,27.45
2023-05-22T12:59:54.965Z,27.44
2023-05-22T13:00:57.282Z,27.45
2023-05-22T13:02:03.583Z,27.46
2023-05-22T13:03:06.864Z,27.47
2023-05-22T13:04:09.360Z,27.43
2023-05-22T13:05:11.838Z,27.44
2023-05-22T13:06:14.336Z,27.45
2023-05-22T13:07:16.659Z,27.46
2023-05-22T13:08:19.058Z,27.47
2023-05-22T13:09:21.469Z,27.51
2023-05-22T13:10:23.766Z,27.51
2023-05-22T13:11:26.826Z,27.53
2023-05-22T13:12:31.157Z,27.54
2023-05-22T13:13:33.788Z,27.57
2023-05-22T13:14:36.160Z,27.58
2023-05-22T13:15:38.685Z,27.59
2023-05-22T13:16:41.286Z,27.57
2023-05-22T13:17:43.683Z,27.55
2023-05-22T13:18:46.410Z,27.55
2023-05-22T13:19:48.917Z,27.56
2023-05-22T13:20:51.604Z,27.52
2023-05-22T13:21:53.893Z,27.54
2023-05-22T13:22:56.348Z,27.52
2023-05-22T13:23:58.751Z,27.52
2023-05-22T13:25:01.103Z,27.51
2023-05-22T13:26:03.480Z,27.50
2023-05-22T13:27:06.303Z,27.49
2023-05-22T13:28:08.689Z,27.52
2023-05-22T13:29:11.153Z,27.52
2023-05-22T13:30:13.819Z,27.50
2023-05-22T13:31:16.184Z,27.48
2023-05-22T13:32:19.699Z,27.49
2023-05-22T13:33:22.205Z,27.51
2023-05-22T13:34:24.900Z,27.52
2023-05-22T13:35:27.606Z,27.55
2023-05-22T13:36:30.241Z,27.55
2023-05-22T13:37:32.599Z,27.55
2023-05-22T13:38:34.970Z,27.58
2023-05-22T13:39:37.679Z,27.59
2023-05-22T13:40:40.067Z,27.60
2023-05-22T13:41:42.442Z,27.59
2023-05-22T13:42:44.805Z,27.58
2023-05-22T13:43:47.188Z,27.56
2023-05-22T13:44:49.537Z,27.55
2023-05-22T13:45:52.048Z,27.56
2023-05-22T13:46:54.474Z,27.54
2023-05-22T13:47:57.242Z,27.55
2023-05-22T13:48:59.806Z,27.57
2023-05-22T13:50:02.157Z,27.56
2023-05-22T13:51:05.038Z,27.56
2023-05-22T13:52:07.362Z,27.53
2023-05-22T13:53:09.744Z,27.52
2023-05-22T13:54:12.167Z,27.50
2023-05-22T13:55:14.467Z,27.51
2023-05-22T13:56:16.981Z,27.49
2023-05-22T13:57:19.660Z,27.47
2023-05-22T13:58:22.071Z,27.47